Time;durP1;ratioP1;P1;durP2;ratioP2;P2;SDS_P1;SDS_P2;PMS_P1;PMS_P2;Temp;Humidity;BMP_temperature;BMP_pressure;BME280_temperature;BME280_humidity;BME280_pressure;Samples;Min_cycle;Max_cycle;Signal;HPM_P1;HPM_P2
2021/07/01 00:01:01;;;;;;;26.00;18.20;;;15.20;99.90;;;;;;5101851;28;21001;-83
2021/07/01 00:03:29;;;;;;;23.70;15.60;;;15.20;99.90;;;;;;5101133;28;20878;-81
2021/07/01 00:05:55;;;;;;;28.13;18.13;;;15.20;99.90;;;;;;5101178;28;20533;-80
2021/07/01 00:08:22;;;;;;;27.17;17.97;;;15.20;99.90;;;;;;5101561;28;20484;-83
2021/07/01 00:10:49;;;;;;;28.03;16.40;;;15.20;99.90;;;;;;5101448;28;20492;-84
2021/07/01 00:13:16;;;;;;;25.40;14.80;;;15.10;99.90;;;;;;5101002;28;20518;-82
2021/07/01 00:15:45;;;;;;;30.73;17.17;;;15.20;99.90;;;;;;5101082;28;21031;-83
2021/07/01 00:18:12;;;;;;;24.37;15.23;;;15.20;99.90;;;;;;5100788;28;20504;-83
2021/07/01 00:20:38;;;;;;;27.83;16.80;;;15.10;99.90;;;;;;5101382;28;20505;-83
2021/07/01 00:23:06;;;;;;;30.23;18.60;;;15.00;99.90;;;;;;5103019;28;20456;-84
2021/07/01 00:25:32;;;;;;;26.40;15.97;;;15.10;99.90;;;;;;5099605;28;20514;-83
2021/07/01 00:27:59;;;;;;;30.43;17.30;;;15.10;99.90;;;;;;5100815;28;20450;-84
2021/07/01 00:30:27;;;;;;;33.13;19.00;;;15.10;99.90;;;;;;5099696;28;20824;-83
2021/07/01 00:32:55;;;;;;;31.63;17.77;;;15.20;99.90;;;;;;5100369;28;20460;-83
2021/07/01 00:35:22;;;;;;;26.50;16.00;;;15.30;99.90;;;;;;5099236;28;20478;-84
2021/07/01 00:37:50;;;;;;;25.13;15.43;;;15.40;99.90;;;;;;5100522;28;20534;-83
2021/07/01 00:40:17;;;;;;;28.37;18.63;;;15.30;99.90;;;;;;5099313;28;20528;-83
2021/07/01 00:42:44;;;;;;;21.90;13.83;;;15.20;99.90;;;;;;5099886;28;20514;-83
2021/07/01 00:45:12;;;;;;;25.90;14.87;;;15.20;99.90;;;;;;5098836;28;20957;-82
2021/07/01 00:47:39;;;;;;;23.80;15.40;;;15.10;99.90;;;;;;5098645;28;20507;-83
2021/07/01 00:50:10;;;;;;;24.90;16.47;;;15.20;99.90;;;;;;5098922;28;21068;-84
2021/07/01 00:52:37;;;;;;;23.37;16.00;;;15.20;99.90;;;;;;5098715;28;20805;-82
2021/07/01 00:55:05;;;;;;;26.13;17.93;;;15.20;99.90;;;;;;5099574;28;20786;-83
2021/07/01 00:57:33;;;;;;;26.87;15.67;;;15.10;99.90;;;;;;5098231;28;20464;-83
2021/07/01 01:00:00;;;;;;;23.10;13.90;;;15.20;99.90;;;;;;5099040;28;21052;-83
2021/07/01 01:02:27;;;;;;;30.40;17.97;;;15.20;99.90;;;;;;5098910;28;20441;-83
2021/07/01 01:04:53;;;;;;;28.33;16.63;;;15.20;99.90;;;;;;5098298;28;20452;-83
2021/07/01 01:07:22;;;;;;;28.43;15.83;;;15.10;99.90;;;;;;5098265;28;20831;-83
2021/07/01 01:09:48;;;;;;;32.07;19.13;;;15.10;99.90;;;;;;5097636;28;20442;-84
2021/07/01 01:12:16;;;;;;;28.33;16.50;;;15.10;99.90;;;;;;5098898;28;20465;-83
2021/07/01 01:14:43;;;;;;;29.43;19.47;;;15.10;99.90;;;;;;5097815;28;20457;-83
2021/07/01 01:17:10;;;;;;;23.10;14.50;;;15.10;99.90;;;;;;5099059;28;20868;-83
2021/07/01 01:19:36;;;;;;;25.20;16.80;;;15.20;99.90;;;;;;5098970;28;20543;-83
2021/07/01 01:22:05;;;;;;;25.73;17.60;;;15.10;99.90;;;;;;5098958;28;20473;-83
2021/07/01 01:24:34;;;;;;;25.97;16.37;;;15.20;99.90;;;;;;5098816;28;20830;-83
2021/07/01 01:27:02;;;;;;;31.77;19.20;;;15.10;99.90;;;;;;5098624;28;20446;-83
2021/07/01 01:29:28;;;;;;;25.33;14.77;;;15.10;99.90;;;;;;5098371;28;20460;-83
2021/07/01 01:31:55;;;;;;;25.33;15.53;;;15.00;99.90;;;;;;5099484;28;20896;-82
2021/07/01 01:34:22;;;;;;;25.57;16.27;;;15.10;99.90;;;;;;5099457;28;20543;-82
2021/07/01 01:36:49;;;;;;;24.70;15.63;;;15.00;99.90;;;;;;5099038;28;20572;-83
2021/07/01 01:39:20;;;;;;;28.63;18.10;;;15.10;99.90;;;;;;5097436;28;20464;-82
2021/07/01 01:41:47;;;;;;;30.97;19.70;;;15.00;99.90;;;;;;5097955;28;20481;-82
2021/07/01 01:44:14;;;;;;;29.40;17.67;;;14.90;99.90;;;;;;5098565;28;20450;-81
2021/07/01 01:46:42;;;;;;;26.83;16.97;;;15.00;99.90;;;;;;5098283;28;20960;-82
2021/07/01 01:49:10;;;;;;;29.63;17.60;;;15.00;99.90;;;;;;5098512;28;20454;-83
2021/07/01 01:51:37;;;;;;;24.07;15.17;;;15.00;99.90;;;;;;5099026;28;20473;-83
2021/07/01 01:54:05;;;;;;;29.80;16.97;;;15.00;99.90;;;;;;5100009;28;20540;-84
2021/07/01 01:56:38;;;;;;;21.57;14.40;;;15.00;99.90;;;;;;5100290;28;21017;-84
2021/07/01 01:59:06;;;;;;;39.73;17.20;;;15.00;99.90;;;;;;5098546;28;20469;-82
2021/07/01 02:01:33;;;;;;;27.40;16.80;;;15.00;99.90;;;;;;5098806;28;20514;-83
2021/07/01 02:04:00;;;;;;;27.47;16.70;;;14.90;99.90;;;;;;5099553;28;20509;-83
2021/07/01 02:06:27;;;;;;;22.73;14.63;;;14.70;99.90;;;;;;5098622;28;20457;-83
2021/07/01 02:08:54;;;;;;;20.17;13.27;;;14.90;99.90;;;;;;5106716;28;20518;-80
2021/07/01 02:11:21;;;;;;;21.73;14.40;;;14.90;99.90;;;;;;5100207;28;20554;-83
2021/07/01 02:13:49;;;;;;;21.97;14.17;;;15.00;99.90;;;;;;5095351;28;20460;-83
2021/07/01 02:16:15;;;;;;;22.47;13.60;;;15.10;99.90;;;;;;5096025;28;20478;-83
2021/07/01 02:18:42;;;;;;;24.50;14.43;;;15.00;99.90;;;;;;5095122;28;20509;-83
2021/07/01 02:21:09;;;;;;;24.50;14.50;;;14.90;99.90;;;;;;5096314;28;20523;-82
2021/07/01 02:23:36;;;;;;;20.43;13.50;;;14.90;99.90;;;;;;5096980;28;20484;-83
2021/07/01 02:26:03;;;;;;;23.60;15.07;;;14.90;99.90;;;;;;5095436;28;20950;-83
2021/07/01 02:28:30;;;;;;;20.60;13.70;;;14.80;99.90;;;;;;5098178;28;20495;-84
2021/07/01 02:30:58;;;;;;;20.33;13.73;;;14.90;99.90;;;;;;5095792;28;20561;-83
2021/07/01 02:33:26;;;;;;;19.33;13.83;;;14.90;99.90;;;;;;5096466;28;21035;-83
2021/07/01 02:35:53;;;;;;;24.50;15.60;;;15.00;99.90;;;;;;5095949;28;20569;-82
2021/07/01 02:38:20;;;;;;;23.53;14.60;;;15.00;99.90;;;;;;5095935;28;21011;-83
2021/07/01 02:40:47;;;;;;;22.43;15.20;;;15.00;99.90;;;;;;5095753;28;21065;-82
2021/07/01 02:43:14;;;;;;;35.37;19.90;;;15.10;99.90;;;;;;5096176;28;20442;-84
2021/07/01 02:45:41;;;;;;;27.90;18.07;;;15.00;99.90;;;;;;5096491;28;20446;-83
2021/07/01 02:48:09;;;;;;;34.80;21.63;;;15.10;99.90;;;;;;5096468;28;20480;-82
2021/07/01 02:50:37;;;;;;;34.20;21.47;;;15.10;99.90;;;;;;5096268;28;20832;-82
2021/07/01 02:53:03;;;;;;;34.83;21.20;;;15.10;99.90;;;;;;5096210;28;20454;-83
2021/07/01 02:55:30;;;;;;;30.43;21.40;;;15.00;99.90;;;;;;5100267;28;20453;-84
2021/07/01 02:57:57;;;;;;;29.37;18.80;;;15.10;99.90;;;;;;5098481;28;20949;-84
2021/07/01 03:00:24;;;;;;;28.60;19.90;;;15.10;99.90;;;;;;5098946;28;21011;-83
2021/07/01 03:03:17;;;;;;;37.17;22.90;;;15.10;99.90;;;;;;5098394;28;20446;-85
2021/07/01 03:05:44;;;;;;;33.80;20.37;;;15.00;99.90;;;;;;5094376;28;20517;-83
2021/07/01 03:08:10;;;;;;;33.83;21.90;;;15.00;99.90;;;;;;5099488;28;20442;-84
2021/07/01 03:10:37;;;;;;;38.80;27.20;;;14.90;99.90;;;;;;5097077;28;20469;-83
2021/07/01 03:13:04;;;;;;;28.43;20.63;;;14.90;99.90;;;;;;5098582;28;20533;-85
2021/07/01 03:15:31;;;;;;;30.13;19.33;;;14.90;99.90;;;;;;5100312;28;20461;-84
2021/07/01 03:17:58;;;;;;;32.17;19.53;;;15.00;99.90;;;;;;5098495;28;20918;-85
2021/07/01 03:20:26;;;;;;;33.17;17.80;;;15.00;99.90;;;;;;5093387;28;20531;-84
2021/07/01 03:22:53;;;;;;;34.60;19.83;;;15.00;99.90;;;;;;5095472;28;20988;-83
2021/07/01 03:25:20;;;;;;;27.67;17.83;;;15.00;99.90;;;;;;5100474;28;20474;-83
2021/07/01 03:27:47;;;;;;;26.10;17.60;;;15.00;99.90;;;;;;5100368;28;20470;-84
2021/07/01 03:30:15;;;;;;;30.83;19.00;;;15.00;99.90;;;;;;5101453;28;20837;-84
2021/07/01 03:32:42;;;;;;;30.20;19.03;;;14.90;99.90;;;;;;5101404;28;20514;-84
2021/07/01 03:35:10;;;;;;;33.97;24.13;;;14.90;99.90;;;;;;5101195;28;20450;-83
2021/07/01 03:37:38;;;;;;;32.50;21.33;;;14.90;99.90;;;;;;5100270;28;20589;-83
2021/07/01 03:40:07;;;;;;;34.73;23.70;;;14.90;99.90;;;;;;5094423;28;20534;-85
2021/07/01 03:42:34;;;;;;;30.67;20.40;;;14.90;99.90;;;;;;5080994;28;20473;-86
2021/07/01 03:45:01;;;;;;;33.57;23.30;;;15.00;99.90;;;;;;5099951;28;20443;-85
2021/07/01 03:47:28;;;;;;;33.33;21.63;;;14.90;99.90;;;;;;5100744;28;20450;-85
2021/07/01 03:49:55;;;;;;;33.63;21.63;;;15.00;99.90;;;;;;5096136;28;20549;-87
2021/07/01 03:52:21;;;;;;;34.67;24.10;;;15.00;99.90;;;;;;5078581;28;20450;-88
2021/07/01 03:54:50;;;;;;;34.00;23.20;;;14.90;99.90;;;;;;5095200;28;20461;-89
2021/07/01 03:57:17;;;;;;;32.67;20.50;;;15.00;99.90;;;;;;5094669;28;20482;-88
2021/07/01 04:02:46;;;;;;;37.87;21.57;;;15.00;99.90;;;;;;5093139;28;20448;-89
2021/07/01 04:05:18;;;;;;;32.17;21.87;;;15.00;99.90;;;;;;5095442;28;20457;-89
2021/07/01 04:16:32;;;;;;;24.70;16.43;;;14.90;99.90;;;;;;5077051;28;20565;-89
2021/07/01 04:19:07;;;;;;;30.57;18.63;;;14.80;99.90;;;;;;5094520;28;20974;-89
2021/07/01 04:21:41;;;;;;;33.60;18.73;;;14.90;99.90;;;;;;5095518;28;20473;-88
2021/07/01 04:24:30;;;;;;;24.20;15.37;;;14.80;99.90;;;;;;5099655;28;20442;-88
2021/07/01 04:27:11;;;;;;;25.07;15.20;;;14.80;99.90;;;;;;5118658;28;20450;-88
2021/07/01 04:29:43;;;;;;;24.93;15.90;;;14.90;99.90;;;;;;5118649;28;20450;-87
2021/07/01 04:32:15;;;;;;;26.80;16.73;;;14.90;99.90;;;;;;5118152;28;20446;-88
2021/07/01 04:34:42;;;;;;;26.87;15.00;;;14.80;99.90;;;;;;5118044;28;20449;-86
2021/07/01 04:37:09;;;;;;;29.40;16.30;;;14.90;99.90;;;;;;5117286;28;20545;-86
2021/07/01 04:39:36;;;;;;;23.70;16.37;;;14.90;99.90;;;;;;5116823;28;20473;-87
2021/07/01 04:42:05;;;;;;;20.00;13.30;;;15.00;99.90;;;;;;5088792;28;20499;-87
2021/07/01 04:44:31;;;;;;;20.70;13.20;;;14.90;99.90;;;;;;5083328;28;20460;-86
2021/07/01 04:46:58;;;;;;;17.67;11.80;;;14.80;99.90;;;;;;5109995;28;20426;-89
2021/07/01 04:49:25;;;;;;;18.70;12.37;;;14.90;99.90;;;;;;5096997;28;20541;-87
2021/07/01 04:51:52;;;;;;;26.20;14.13;;;14.80;99.90;;;;;;5126382;22;20497;-87
2021/07/01 04:54:19;;;;;;;24.00;13.30;;;14.90;99.90;;;;;;5119762;28;20975;-87
2021/07/01 04:56:46;;;;;;;20.33;12.17;;;14.90;99.90;;;;;;5134192;28;20468;-87
2021/07/01 04:59:16;;;;;;;23.70;12.23;;;14.90;99.90;;;;;;5139269;28;20440;-87
2021/07/01 05:01:43;;;;;;;19.90;11.30;;;14.80;99.90;;;;;;5138507;28;20453;-88
2021/07/01 05:04:11;;;;;;;19.17;12.03;;;14.80;99.90;;;;;;5128528;27;20450;-86
2021/07/01 05:06:39;;;;;;;18.87;11.83;;;14.70;99.90;;;;;;5105678;28;20444;-86
2021/07/01 05:09:07;;;;;;;18.03;10.90;;;14.70;99.90;;;;;;5094192;28;20545;-86
2021/07/01 05:11:36;;;;;;;19.53;10.87;;;14.70;99.90;;;;;;5093107;28;20474;-86
2021/07/01 05:14:03;;;;;;;16.57;9.80;;;14.80;99.90;;;;;;5112669;28;20446;-87
2021/07/01 05:16:33;;;;;;;16.50;9.30;;;14.80;99.90;;;;;;5116945;28;20469;-87
2021/07/01 05:19:01;;;;;;;17.43;9.90;;;14.90;99.90;;;;;;5126088;28;20518;-86
2021/07/01 05:21:28;;;;;;;19.63;11.23;;;14.80;99.90;;;;;;5124716;28;20463;-87
2021/07/01 05:23:55;;;;;;;18.57;10.73;;;14.70;99.90;;;;;;5126629;28;20445;-86
2021/07/01 05:26:22;;;;;;;17.53;8.13;;;14.70;99.90;;;;;;5123505;28;20526;-87
2021/07/01 05:28:49;;;;;;;14.50;8.30;;;14.70;99.90;;;;;;5122886;28;20473;-87
2021/07/01 05:31:16;;;;;;;15.17;8.30;;;14.70;99.90;;;;;;5124463;28;20520;-87
2021/07/01 05:33:44;;;;;;;13.37;8.90;;;14.70;99.90;;;;;;5130468;28;20477;-87
2021/07/01 05:36:11;;;;;;;23.27;10.60;;;14.80;99.90;;;;;;5134278;28;20461;-87
2021/07/01 05:38:38;;;;;;;19.90;12.10;;;14.70;99.90;;;;;;5125663;28;20529;-87
2021/07/01 05:41:05;;;;;;;22.17;11.23;;;14.70;99.90;;;;;;5112577;28;20475;-87
2021/07/01 05:43:32;;;;;;;21.83;9.93;;;14.80;99.90;;;;;;5115676;28;20445;-88
2021/07/01 05:45:59;;;;;;;14.77;9.10;;;14.70;99.90;;;;;;5108627;28;20827;-88
2021/07/01 05:48:27;;;;;;;20.33;9.17;;;14.70;99.90;;;;;;5112467;28;20490;-88
2021/07/01 05:51:00;;;;;;;15.87;9.50;;;14.80;99.90;;;;;;5112011;28;21073;-88
2021/07/01 05:53:31;;;;;;;15.67;8.60;;;14.80;99.90;;;;;;5107563;28;20433;-88
2021/07/01 05:56:01;;;;;;;12.47;7.20;;;14.70;99.90;;;;;;5111663;28;20983;-88
2021/07/01 05:58:31;;;;;;;16.47;9.43;;;14.80;99.90;;;;;;5111667;28;20473;-87
2021/07/01 06:01:00;;;;;;;20.33;9.57;;;14.70;99.90;;;;;;5111735;28;20495;-88
2021/07/01 06:03:27;;;;;;;14.90;8.53;;;14.70;99.90;;;;;;5111610;28;20456;-88
2021/07/01 06:06:00;;;;;;;14.33;10.17;;;14.80;99.90;;;;;;5101357;28;20456;-87
2021/07/01 06:08:31;;;;;;;16.43;9.50;;;14.80;99.90;;;;;;5105336;28;20966;-88
2021/07/01 06:11:02;;;;;;;16.37;9.80;;;14.90;99.90;;;;;;5097094;28;20453;-88
2021/07/01 06:13:29;;;;;;;27.13;11.30;;;14.90;99.90;;;;;;5100490;28;20453;-87
2021/07/01 06:15:57;;;;;;;20.53;9.90;;;14.90;99.90;;;;;;5099990;28;20524;-87
2021/07/01 06:18:25;;;;;;;20.07;11.27;;;14.90;99.90;;;;;;5101944;28;21088;-88
2021/07/01 06:20:52;;;;;;;20.70;10.90;;;14.80;99.90;;;;;;5092770;28;21008;-87
2021/07/01 06:23:20;;;;;;;19.17;10.40;;;14.90;99.90;;;;;;5096176;28;20454;-87
2021/07/01 06:25:48;;;;;;;14.80;8.67;;;14.80;99.90;;;;;;5112313;28;20455;-87
2021/07/01 06:28:15;;;;;;;17.40;9.93;;;14.80;99.90;;;;;;5114641;28;20456;-86
2021/07/01 06:30:44;;;;;;;17.87;9.23;;;14.90;99.90;;;;;;5117285;28;20985;-87
2021/07/01 06:33:12;;;;;;;16.57;11.17;;;14.80;99.90;;;;;;5117344;28;20863;-87
2021/07/01 06:35:47;;;;;;;20.20;10.40;;;14.90;99.90;;;;;;5118165;28;20498;-87
2021/07/01 06:38:17;;;;;;;17.43;10.37;;;14.90;99.90;;;;;;5118307;28;20476;-87
2021/07/01 06:40:48;;;;;;;20.27;11.40;;;15.00;99.90;;;;;;5117600;28;20469;-87
2021/07/01 06:43:15;;;;;;;16.50;8.50;;;15.00;99.90;;;;;;5117130;28;20445;-87
2021/07/01 06:45:43;;;;;;;17.30;9.70;;;15.00;99.90;;;;;;5117078;28;20445;-88
2021/07/01 06:48:11;;;;;;;22.03;9.17;;;15.10;99.90;;;;;;5117458;28;20452;-87
2021/07/01 06:50:39;;;;;;;15.87;9.27;;;15.10;99.90;;;;;;5116180;28;20483;-87
2021/07/01 06:53:06;;;;;;;16.80;9.50;;;15.10;99.90;;;;;;5118009;28;20449;-86
2021/07/01 06:55:33;;;;;;;18.33;8.60;;;15.10;99.90;;;;;;5103799;28;20436;-86
2021/07/01 06:58:02;;;;;;;18.40;8.07;;;15.00;99.90;;;;;;5104906;28;20552;-87
2021/07/01 07:00:29;;;;;;;14.73;6.57;;;15.00;99.90;;;;;;5110316;28;20457;-86
2021/07/01 07:02:56;;;;;;;15.40;7.40;;;15.00;99.90;;;;;;5126807;28;20457;-87
2021/07/01 07:05:23;;;;;;;14.40;6.87;;;15.10;99.90;;;;;;5125656;28;20455;-88
2021/07/01 07:07:51;;;;;;;17.73;7.90;;;15.10;99.90;;;;;;5125421;28;20531;-86
2021/07/01 07:10:20;;;;;;;13.83;6.43;;;15.20;99.90;;;;;;5123943;28;20449;-87
2021/07/01 07:12:48;;;;;;;16.77;6.97;;;15.20;99.90;;;;;;5122835;28;20445;-86
2021/07/01 07:15:18;;;;;;;13.00;5.90;;;15.40;99.90;;;;;;5121303;28;20540;-86
2021/07/01 07:17:50;;;;;;;14.43;6.10;;;15.50;99.90;;;;;;5121073;28;20515;-86
2021/07/01 07:20:22;;;;;;;15.00;6.50;;;15.40;99.90;;;;;;5121514;28;20457;-86
2021/07/01 07:22:50;;;;;;;14.90;7.50;;;15.50;99.90;;;;;;5116971;28;20449;-86
2021/07/01 07:25:21;;;;;;;18.33;8.53;;;15.40;99.90;;;;;;5117596;28;20444;-86
2021/07/01 07:27:55;;;;;;;20.77;9.80;;;15.30;99.90;;;;;;5118659;28;20448;-87
2021/07/01 07:30:27;;;;;;;17.70;10.50;;;15.30;99.90;;;;;;5108684;28;20446;-86
2021/07/01 07:32:55;;;;;;;19.43;10.33;;;15.20;99.90;;;;;;5117356;28;20449;-86
2021/07/01 07:35:23;;;;;;;17.87;10.07;;;15.30;99.90;;;;;;5117300;28;20893;-87
2021/07/01 07:37:50;;;;;;;16.37;9.30;;;15.40;99.90;;;;;;5113603;28;20470;-86
2021/07/01 07:40:17;;;;;;;11.67;7.33;;;15.40;99.90;;;;;;5118194;28;20451;-86
2021/07/01 07:42:45;;;;;;;12.37;7.03;;;15.50;99.90;;;;;;5122954;28;20531;-86
2021/07/01 07:45:14;;;;;;;16.70;6.90;;;15.40;99.90;;;;;;5122456;28;20453;-86
2021/07/01 07:47:42;;;;;;;15.57;7.57;;;15.50;99.90;;;;;;5117650;28;20524;-87
2021/07/01 07:50:12;;;;;;;13.33;7.07;;;15.70;99.90;;;;;;5120421;28;20528;-87
2021/07/01 07:52:45;;;;;;;19.20;8.00;;;15.60;99.90;;;;;;5121005;28;20453;-86
2021/07/01 07:55:15;;;;;;;17.00;7.30;;;15.40;99.90;;;;;;5120370;28;20577;-86
2021/07/01 07:57:45;;;;;;;11.10;7.07;;;15.50;99.90;;;;;;5119922;28;20477;-87
2021/07/01 08:00:13;;;;;;;16.50;6.33;;;15.50;99.90;;;;;;5122169;28;20463;-87
2021/07/01 08:02:49;;;;;;;13.80;5.87;;;15.40;99.90;;;;;;5120966;28;20449;-87
2021/07/01 08:05:19;;;;;;;12.70;6.33;;;15.50;99.90;;;;;;5129964;28;20493;-87
2021/07/01 08:07:47;;;;;;;16.43;6.60;;;15.40;99.90;;;;;;5135547;28;20449;-87
2021/07/01 08:10:16;;;;;;;20.13;7.07;;;15.40;99.90;;;;;;5135723;28;20472;-87
2021/07/01 08:12:46;;;;;;;15.10;7.57;;;15.50;99.90;;;;;;5119394;28;20454;-86
2021/07/01 08:15:15;;;;;;;16.00;8.20;;;15.50;99.90;;;;;;5116568;28;20445;-86
2021/07/01 08:17:42;;;;;;;17.83;9.33;;;15.40;99.90;;;;;;5115631;28;20485;-86
2021/07/01 08:20:13;;;;;;;17.27;8.70;;;15.30;99.90;;;;;;5114152;28;20449;-87
2021/07/01 08:22:40;;;;;;;18.13;9.37;;;15.50;99.90;;;;;;5115264;28;20445;-87
2021/07/01 08:25:08;;;;;;;18.63;11.30;;;15.50;99.90;;;;;;5115165;28;20453;-86
2021/07/01 08:27:35;;;;;;;25.20;13.70;;;15.40;99.90;;;;;;5115142;28;20448;-86
2021/07/01 08:30:03;;;;;;;27.77;16.83;;;15.40;99.90;;;;;;5115151;28;20449;-87
2021/07/01 08:32:32;;;;;;;28.40;17.40;;;15.30;99.90;;;;;;5115479;28;20441;-86
2021/07/01 08:35:00;;;;;;;21.90;16.30;;;15.30;99.90;;;;;;5107264;28;20956;-87
2021/07/01 08:37:30;;;;;;;27.80;19.27;;;15.20;99.90;;;;;;5097144;28;20485;-87
2021/07/01 08:40:00;;;;;;;25.40;18.33;;;15.10;99.90;;;;;;5114057;28;20445;-87
2021/07/01 08:42:34;;;;;;;30.63;21.43;;;15.20;99.90;;;;;;5115082;28;20544;-87
2021/07/01 08:45:04;;;;;;;29.63;19.50;;;15.20;99.90;;;;;;5114397;28;20819;-87
2021/07/01 08:47:33;;;;;;;33.13;20.87;;;15.20;99.90;;;;;;5114113;28;20441;-87
2021/07/01 08:50:01;;;;;;;29.70;18.60;;;15.20;99.90;;;;;;5115607;28;20528;-87
2021/07/01 08:52:31;;;;;;;33.03;19.53;;;15.30;99.90;;;;;;5113462;28;20483;-87
2021/07/01 08:55:02;;;;;;;31.80;20.87;;;15.20;99.90;;;;;;5112901;28;20450;-87
2021/07/01 08:57:35;;;;;;;28.30;19.80;;;15.20;99.90;;;;;;5112563;28;20850;-87
2021/07/01 09:00:07;;;;;;;28.67;18.23;;;15.30;99.90;;;;;;5104059;28;20449;-86
2021/07/01 09:02:39;;;;;;;27.40;18.90;;;15.20;99.90;;;;;;5113911;28;20438;-87
2021/07/01 09:05:12;;;;;;;28.67;19.97;;;15.30;99.90;;;;;;5114302;28;20460;-87
2021/07/01 09:07:41;;;;;;;35.03;21.33;;;15.20;99.90;;;;;;5114320;28;20449;-86
2021/07/01 09:10:11;;;;;;;33.43;18.10;;;15.30;99.90;;;;;;5111779;28;20441;-86
2021/07/01 09:12:43;;;;;;;30.20;18.00;;;15.40;99.90;;;;;;5106008;28;20529;-87
2021/07/01 09:15:11;;;;;;;34.20;21.10;;;15.40;99.90;;;;;;5108900;28;20453;-87
2021/07/01 09:17:40;;;;;;;26.87;20.13;;;15.30;99.90;;;;;;5104379;28;20480;-86
2021/07/01 09:20:09;;;;;;;29.43;19.73;;;15.20;99.90;;;;;;5110127;28;20441;-86
2021/07/01 09:22:36;;;;;;;28.27;20.87;;;15.10;99.90;;;;;;5106854;28;20438;-86
2021/07/01 09:25:06;;;;;;;29.83;19.83;;;15.10;99.90;;;;;;5109182;28;20442;-86
2021/07/01 09:27:33;;;;;;;26.73;18.20;;;15.10;99.90;;;;;;5111578;28;20447;-87
2021/07/01 09:30:05;;;;;;;31.23;20.70;;;15.10;99.90;;;;;;5123188;28;20449;-86
2021/07/01 09:32:34;;;;;;;29.00;19.33;;;15.00;99.90;;;;;;5114459;28;20515;-87
2021/07/01 09:35:04;;;;;;;29.53;19.77;;;15.00;99.90;;;;;;5116719;28;20477;-87
2021/07/01 09:37:39;;;;;;;26.30;18.17;;;15.00;99.90;;;;;;5117855;28;20442;-87
2021/07/01 09:40:10;;;;;;;25.90;18.20;;;15.10;99.90;;;;;;5108365;28;20451;-86
2021/07/01 09:42:37;;;;;;;27.43;19.10;;;15.10;99.90;;;;;;5116075;28;20437;-87
2021/07/01 09:45:10;;;;;;;25.10;17.50;;;15.10;99.90;;;;;;5118127;28;20521;-87
2021/07/01 09:47:44;;;;;;;25.87;19.07;;;15.20;99.90;;;;;;5119506;28;20448;-86
2021/07/01 09:50:15;;;;;;;29.20;19.97;;;15.20;99.90;;;;;;5114160;28;20844;-85
2021/07/01 09:52:46;;;;;;;28.50;21.27;;;15.30;99.90;;;;;;5119580;28;20492;-85
2021/07/01 09:55:14;;;;;;;31.10;22.17;;;15.30;99.90;;;;;;5120320;28;20847;-85
2021/07/01 09:57:46;;;;;;;29.47;20.50;;;15.30;99.90;;;;;;5120594;28;20517;-87
2021/07/01 10:00:18;;;;;;;23.77;17.90;;;15.30;99.90;;;;;;5119833;28;20451;-86
2021/07/01 10:02:46;;;;;;;34.83;23.53;;;15.40;99.90;;;;;;5120960;28;20490;-84
2021/07/01 10:05:26;;;;;;;25.67;19.30;;;15.40;99.90;;;;;;5123870;28;20529;-86
2021/07/01 10:07:53;;;;;;;31.50;21.37;;;15.50;99.90;;;;;;5119097;28;20452;-86
2021/07/01 10:10:22;;;;;;;25.83;17.57;;;15.50;99.90;;;;;;5124477;28;20902;-87
2021/07/01 10:12:52;;;;;;;28.93;19.13;;;15.50;99.90;;;;;;5121449;28;20473;-85
2021/07/01 10:15:29;;;;;;;31.43;18.07;;;15.60;99.90;;;;;;5121491;28;20479;-86
2021/07/01 10:18:10;;;;;;;23.60;17.80;;;15.60;99.90;;;;;;5119153;28;20609;-86
2021/07/01 10:20:42;;;;;;;27.60;20.00;;;15.60;99.90;;;;;;5114299;28;20498;-85
2021/07/01 10:23:20;;;;;;;26.37;17.40;;;15.70;99.90;;;;;;5119839;28;20445;-86
2021/07/01 10:25:50;;;;;;;24.97;16.97;;;15.80;99.90;;;;;;5120499;28;20437;-86
2021/07/01 10:28:22;;;;;;;23.63;16.97;;;15.70;99.90;;;;;;5122558;28;21003;-85
2021/07/01 10:31:11;;;;;;;25.47;19.57;;;15.60;99.90;;;;;;5120761;28;20475;-87
2021/07/01 10:33:41;;;;;;;33.57;19.40;;;15.60;99.90;;;;;;5122471;28;20936;-85
2021/07/01 10:36:16;;;;;;;24.07;16.60;;;15.50;99.90;;;;;;5123362;28;20540;-84
2021/07/01 10:38:44;;;;;;;24.60;16.70;;;15.50;99.90;;;;;;5117098;28;20481;-86
2021/07/01 10:41:13;;;;;;;24.23;17.03;;;15.50;99.90;;;;;;5108284;28;20502;-85
2021/07/01 10:43:42;;;;;;;28.20;16.60;;;15.50;99.90;;;;;;5109091;28;20528;-87
2021/07/01 10:46:09;;;;;;;23.50;16.70;;;15.30;99.90;;;;;;5105018;28;20450;-85
2021/07/01 10:48:36;;;;;;;21.13;12.97;;;15.20;99.90;;;;;;5115765;28;20441;-85
2021/07/01 10:51:08;;;;;;;24.87;15.10;;;15.10;99.90;;;;;;5123218;28;20477;-84
2021/07/01 10:53:37;;;;;;;23.77;13.90;;;15.30;99.90;;;;;;5124721;28;20449;-85
2021/07/01 10:56:13;;;;;;;17.40;12.03;;;15.30;99.90;;;;;;5122137;28;20520;-84
2021/07/01 10:58:43;;;;;;;20.40;13.00;;;15.20;99.90;;;;;;5120022;28;20571;-83
2021/07/01 11:01:21;;;;;;;22.23;13.40;;;15.20;99.90;;;;;;5121418;28;20528;-83
2021/07/01 11:04:02;;;;;;;21.47;13.50;;;15.30;99.90;;;;;;5121457;28;20453;-84
2021/07/01 11:06:29;;;;;;;22.30;14.53;;;15.20;99.90;;;;;;5102980;28;20438;-84
2021/07/01 11:08:57;;;;;;;21.40;13.60;;;15.10;99.90;;;;;;5109596;28;20437;-84
2021/07/01 11:11:30;;;;;;;20.47;13.37;;;15.00;99.90;;;;;;5125648;28;20497;-84
2021/07/01 11:14:01;;;;;;;17.73;12.00;;;15.00;99.90;;;;;;5124718;28;20536;-83
2021/07/01 11:16:34;;;;;;;20.70;12.97;;;15.00;99.90;;;;;;5127462;28;20454;-84
2021/07/01 11:19:02;;;;;;;23.50;14.10;;;15.10;99.90;;;;;;5118294;28;20575;-85
2021/07/01 11:21:29;;;;;;;22.63;14.57;;;15.20;99.90;;;;;;5118715;28;20466;-85
2021/07/01 11:24:11;;;;;;;22.67;16.03;;;15.10;99.90;;;;;;5107874;28;20488;-82
2021/07/01 11:26:38;;;;;;;25.33;16.33;;;15.10;99.90;;;;;;5106373;28;20505;-84
2021/07/01 11:29:08;;;;;;;25.23;16.57;;;15.30;99.90;;;;;;5106925;28;20441;-83
2021/07/01 11:31:41;;;;;;;27.30;17.17;;;15.40;99.90;;;;;;5106126;28;20480;-84
2021/07/01 11:34:09;;;;;;;22.93;15.23;;;15.40;99.90;;;;;;5110052;28;20864;-84
2021/07/01 11:36:37;;;;;;;24.27;15.07;;;15.40;99.90;;;;;;5117856;28;20524;-83
2021/07/01 11:39:07;;;;;;;19.57;13.30;;;15.30;99.90;;;;;;5114794;28;20492;-84
2021/07/01 11:41:35;;;;;;;20.63;13.47;;;15.30;99.90;;;;;;5117440;28;20564;-84
2021/07/01 11:44:02;;;;;;;22.53;14.53;;;15.40;99.90;;;;;;5116355;28;20451;-85
2021/07/01 11:46:33;;;;;;;25.93;15.83;;;15.30;99.90;;;;;;5112788;28;20485;-84
2021/07/01 11:49:04;;;;;;;25.53;16.23;;;15.30;99.90;;;;;;5124977;28;20444;-86
2021/07/01 11:51:31;;;;;;;18.73;12.20;;;15.20;99.90;;;;;;5127816;28;20474;-86
2021/07/01 11:53:58;;;;;;;21.97;14.67;;;15.20;99.90;;;;;;5133971;28;20469;-84
2021/07/01 11:56:25;;;;;;;16.73;10.23;;;15.10;99.90;;;;;;5136503;28;20456;-83
2021/07/01 11:58:53;;;;;;;18.63;11.73;;;15.20;99.90;;;;;;5118566;28;20494;-83
2021/07/01 12:01:20;;;;;;;17.23;11.53;;;15.30;99.90;;;;;;5126000;28;20454;-83
2021/07/01 12:03:50;;;;;;;16.87;11.47;;;15.20;99.90;;;;;;5128143;28;20481;-82
2021/07/01 12:06:39;;;;;;;27.23;14.00;;;15.20;99.90;;;;;;5135870;28;20475;-80
2021/07/01 12:09:07;;;;;;;18.93;11.97;;;15.20;99.90;;;;;;5125936;28;20437;-83
2021/07/01 12:12:12;;;;;;;20.10;12.90;;;15.30;99.90;;;;;;5121567;28;20827;-83
2021/07/01 12:14:41;;;;;;;17.23;11.70;;;15.30;99.90;;;;;;5119060;28;20453;-83
2021/07/01 12:17:08;;;;;;;17.60;10.73;;;15.30;99.90;;;;;;5115117;28;20452;-84
2021/07/01 12:20:03;;;;;;;19.53;12.40;;;15.40;99.90;;;;;;5118738;28;20472;-83
2021/07/01 12:22:47;;;;;;;19.87;11.27;;;15.30;99.90;;;;;;5111539;28;20446;-82
2021/07/01 12:25:39;;;;;;;18.10;12.80;;;15.30;99.90;;;;;;5099701;28;20450;-81
2021/07/01 12:28:11;;;;;;;24.37;12.63;;;15.20;99.90;;;;;;5100347;28;20446;-82
2021/07/01 12:31:02;;;;;;;20.00;12.60;;;15.20;99.90;;;;;;5100104;28;20481;-81
2021/07/01 12:33:44;;;;;;;19.27;12.60;;;15.20;99.90;;;;;;5099798;28;21068;-81
2021/07/01 12:36:22;;;;;;;23.10;14.47;;;15.30;99.90;;;;;;5099114;28;20461;-81
2021/07/01 12:39:20;;;;;;;20.93;12.17;;;15.40;99.90;;;;;;5099395;28;20584;-82
2021/07/01 12:41:50;;;;;;;19.27;12.97;;;15.40;99.90;;;;;;5100230;28;20470;-81
2021/07/01 12:44:19;;;;;;;19.60;12.63;;;15.50;99.90;;;;;;5108507;28;20446;-82
2021/07/01 12:47:11;;;;;;;14.67;10.40;;;15.40;99.90;;;;;;5110475;28;20502;-82
2021/07/01 12:49:58;;;;;;;13.60;9.40;;;15.40;99.90;;;;;;5108495;28;20442;-82
2021/07/01 12:52:50;;;;;;;15.17;10.97;;;15.20;99.90;;;;;;5110683;28;21199;-82